createdAt,value
2023-03-22T00:04:15.876Z,0.00
2023-03-22T00:09:15.813Z,0.00
2023-03-22T00:14:15.729Z,0.00
2023-03-22T00:19:15.660Z,0.00
2023-03-22T00:24:15.602Z,0.00
2023-03-22T00:29:15.530Z,0.00
2023-03-22T00:34:15.460Z,0.00
2023-03-22T00:39:15.401Z,0.00
2023-03-22T00:44:15.334Z,0.00
2023-03-22T00:49:15.263Z,0.00
2023-03-22T00:54:15.194Z,0.00
2023-03-22T00:59:15.135Z,0.00
2023-03-22T01:04:15.070Z,0.00
2023-03-22T01:09:15.212Z,0.00
2023-03-22T01:14:14.941Z,0.00
2023-03-22T01:19:14.860Z,0.00
2023-03-22T01:24:14.789Z,0.00
2023-03-22T01:29:14.710Z,0.00
2023-03-22T01:34:14.658Z,0.00
2023-03-22T01:39:14.590Z,0.00
2023-03-22T01:44:14.537Z,0.00
2023-03-22T01:49:14.459Z,0.00
2023-03-22T01:54:14.392Z,0.00
2023-03-22T01:59:14.312Z,0.00
2023-03-22T02:04:14.254Z,0.00
2023-03-22T02:09:14.203Z,0.00
2023-03-22T02:14:14.121Z,0.00
2023-03-22T02:19:14.064Z,0.00
2023-03-22T02:24:13.991Z,0.00
2023-03-22T02:29:13.928Z,0.00
2023-03-22T02:34:13.875Z,0.00
2023-03-22T02:39:13.790Z,0.00
2023-03-22T02:44:13.750Z,0.00
2023-03-22T02:49:13.668Z,0.00
2023-03-22T02:54:13.610Z,0.00
2023-03-22T02:59:13.540Z,0.00
2023-03-22T03:04:13.470Z,0.00
2023-03-22T03:09:13.389Z,0.00
2023-03-22T03:14:13.338Z,0.00
2023-03-22T03:19:13.268Z,0.00
2023-03-22T03:24:13.200Z,0.00
2023-03-22T03:29:13.120Z,0.00
2023-03-22T03:34:13.092Z,0.00
2023-03-22T03:39:12.992Z,0.00
2023-03-22T03:44:12.940Z,0.00
2023-03-22T03:49:12.858Z,0.00
2023-03-22T03:54:12.797Z,0.00
2023-03-22T03:59:12.732Z,0.00
2023-03-22T04:04:12.689Z,0.00
2023-03-22T04:09:12.589Z,0.00
2023-03-22T04:14:12.532Z,0.00
2023-03-22T04:19:12.463Z,0.00
2023-03-22T04:24:12.440Z,0.00
2023-03-22T04:29:12.327Z,0.00
2023-03-22T04:34:12.258Z,0.00
2023-03-22T04:39:12.201Z,0.00
2023-03-22T04:44:12.127Z,0.00
2023-03-22T04:49:12.056Z,0.00
2023-03-22T04:54:11.996Z,0.00
2023-03-22T04:59:11.935Z,5.62
2023-03-22T05:04:11.872Z,22.50
2023-03-22T05:09:11.786Z,39.38
2023-03-22T05:14:11.779Z,73.12
2023-03-22T05:19:11.664Z,112.50
2023-03-22T05:24:11.603Z,129.38
2023-03-22T05:29:11.528Z,163.12
2023-03-22T05:34:11.473Z,196.88
2023-03-22T05:39:11.400Z,309.38
2023-03-22T05:44:11.356Z,478.12
2023-03-22T05:49:12.266Z,500.62
2023-03-22T05:54:11.213Z,461.25
2023-03-22T05:59:11.154Z,568.12
2023-03-22T06:04:11.072Z,568.12
2023-03-22T06:09:17.315Z,444.38
2023-03-22T06:14:11.941Z,410.62
2023-03-22T06:19:10.869Z,354.38
2023-03-22T06:24:10.795Z,348.75
2023-03-22T06:29:10.730Z,371.25
2023-03-22T06:34:10.661Z,675.00
2023-03-22T06:39:10.595Z,590.62
2023-03-22T06:44:10.513Z,765.00
2023-03-22T06:49:10.449Z,630.00
2023-03-22T06:54:10.381Z,483.75
2023-03-22T06:59:10.311Z,466.88
2023-03-22T07:04:10.289Z,568.12
2023-03-22T07:09:10.175Z,545.62
2023-03-22T07:14:10.104Z,568.12
2023-03-22T07:19:10.044Z,534.38
2023-03-22T07:24:09.973Z,573.75
2023-03-22T07:29:09.910Z,804.38
2023-03-22T07:34:09.845Z,2182.50
2023-03-22T07:39:09.758Z,1569.38
2023-03-22T07:44:17.676Z,2688.75
2023-03-22T07:49:10.874Z,4089.38
2023-03-22T07:54:09.814Z,3515.62
2023-03-22T07:59:09.523Z,3470.62
2023-03-22T08:04:09.451Z,2694.38
2023-03-22T08:09:09.386Z,1693.12
2023-03-22T08:14:09.303Z,1001.25
2023-03-22T08:19:09.240Z,663.75
2023-03-22T08:24:09.168Z,607.50
2023-03-22T08:29:09.099Z,748.12
2023-03-22T08:34:09.041Z,1068.75
2023-03-22T08:39:08.971Z,928.12
2023-03-22T08:44:08.925Z,860.62
2023-03-22T08:49:08.844Z,1012.50
2023-03-22T08:54:08.796Z,916.88
2023-03-22T08:59:08.702Z,736.88
2023-03-22T09:04:10.656Z,579.38
2023-03-22T09:09:08.562Z,590.62
2023-03-22T09:14:08.515Z,658.12
2023-03-22T09:19:08.430Z,798.75
2023-03-22T09:24:08.372Z,928.12
2023-03-22T09:29:08.298Z,1096.88
2023-03-22T09:34:08.231Z,1096.88
2023-03-22T09:39:08.162Z,1068.75
2023-03-22T09:44:08.100Z,1051.88
2023-03-22T09:49:08.036Z,1040.62
2023-03-22T09:54:07.955Z,1035.00
2023-03-22T09:59:07.884Z,838.12
2023-03-22T10:04:07.864Z,731.25
2023-03-22T10:09:07.755Z,607.50
2023-03-22T10:14:07.702Z,646.88
2023-03-22T10:19:07.617Z,675.00
2023-03-22T10:24:07.558Z,680.62
2023-03-22T10:29:07.491Z,703.12
2023-03-22T10:34:07.441Z,573.75
2023-03-22T10:39:07.363Z,703.12
2023-03-22T10:44:07.289Z,607.50
2023-03-22T10:49:07.235Z,675.00
2023-03-22T10:54:07.164Z,607.50
2023-03-22T10:59:07.101Z,776.25
2023-03-22T11:04:07.038Z,545.62
2023-03-22T11:09:06.957Z,562.50
2023-03-22T11:14:06.912Z,556.88
2023-03-22T11:19:06.831Z,540.00
2023-03-22T11:24:06.773Z,590.62
2023-03-22T11:29:06.698Z,517.50
2023-03-22T11:34:06.628Z,506.25
2023-03-22T11:39:06.560Z,506.25
2023-03-22T11:44:06.491Z,523.12
2023-03-22T11:49:06.463Z,511.88
2023-03-22T11:54:06.373Z,517.50
2023-03-22T11:59:06.283Z,534.38
2023-03-22T12:04:06.270Z,506.25
2023-03-22T12:09:06.159Z,511.88
2023-03-22T12:14:06.097Z,534.38
2023-03-22T12:19:06.013Z,551.25
2023-03-22T12:24:05.946Z,466.88
2023-03-22T12:29:05.884Z,596.25
2023-03-22T12:34:05.853Z,540.00
2023-03-22T12:39:05.748Z,528.75
2023-03-22T12:44:05.689Z,489.38
2023-03-22T12:49:05.657Z,450.00
2023-03-22T12:54:05.565Z,444.38
2023-03-22T12:59:05.506Z,433.12
2023-03-22T13:04:05.586Z,500.62
2023-03-22T13:09:05.344Z,500.62
2023-03-22T13:14:05.283Z,562.50
2023-03-22T13:19:05.204Z,545.62
2023-03-22T13:24:05.180Z,523.12
2023-03-22T13:29:05.075Z,483.75
2023-03-22T13:34:05.012Z,450.00
2023-03-22T13:39:04.947Z,444.38
2023-03-22T13:44:06.934Z,455.62
2023-03-22T13:49:04.925Z,461.25
2023-03-22T13:54:04.743Z,444.38
2023-03-22T13:59:04.668Z,433.12
2023-03-22T14:04:04.612Z,461.25
2023-03-22T14:09:04.543Z,444.38
2023-03-22T14:14:04.481Z,416.25
2023-03-22T14:19:04.412Z,360.00
